Kinnear, Wyoming
Current Conditions -  °F | °C
As of 10:53 PM on Tuesday 21 Oct 2014 (Local Time) from KRIW Reporting Station
Clear Clear  
Wind Chill: 36°   Ceiling: Unl
Heat Index: 45°   Visibility: 10mi
Dew Point: 22°   Wind: 23mph
Humidity: 40%   Direction: 310°NW
Pressure: 29.97"   Gusts: 32mph
Location:  43.15°N, 108.68°W
Report Text: KRIW 220453Z AUTO 31020G28KT 10SM CLR 07/M06 A2997 RMK AO2 PK WND 31031/0439 SLP119 T00721056
Loading
Personal Weather Stations






























Interactive Weather Map
Tropical Storm Tracking
New forecast layout! Learn more

10-Day Weather Forecast

Advertisements
Track Severe Weather on mobile